QTR3E LIRF-OTHH
Flight info
| Callsign | QTR3E |
|---|---|
| Flight time | N/A |
| Altitude | 39000 |
| Route | SIPRO DCT TEA DCT LUNAR DCT UPLAD DCT ALIXI DCT DINOB DCT KFN UM872 ETILI/N0483F410 UM872 PLH UL604 SALUN N705 MMA P751 DASUM Y234 FYM M872 BDB Y214 RAPMA/N0521F290 Y214 ASPUS Y432 LADBO T142 LAEEB |
| Aircraft | A359/H-SDE2E3GHIJ3J4J5LM1ORWXY/LB1D1 |
Departure
| Time | N/A |
|---|---|
| Airport | Rome–Fiumicino Leonardo da Vinci International Airport (LIRF) |
Arrival
| Time | 2026-05-06 20:47 |
|---|---|
| Airport | Hamad International Airport (OTHH) |
| Time | Latitude | Longitude | Altitude | Speed | Heading |
|---|---|---|---|---|---|
| 2026-05-06 19:21 | 24.37114 | 41.45162 | 38963 ft | 561 kts | 103° |
| 2026-05-06 19:21 | 24.36659 | 41.49413 | 38963 ft | 561 kts | 103° |
| 2026-05-06 19:22 | 24.35746 | 41.57922 | 38951 ft | 561 kts | 103° |
| 2026-05-06 19:22 | 24.34828 | 41.66427 | 38957 ft | 561 kts | 103° |
| 2026-05-06 19:23 | 24.33911 | 41.74881 | 38960 ft | 561 kts | 103° |
| 2026-05-06 19:23 | 24.32763 | 41.83272 | 38972 ft | 553 kts | 111° |
| 2026-05-06 19:24 | 24.30771 | 41.91428 | 38961 ft | 550 kts | 113° |
| 2026-05-06 19:24 | 24.28653 | 41.99452 | 38947 ft | 549 kts | 114° |
| 2026-05-06 19:25 | 24.26505 | 42.07507 | 38963 ft | 549 kts | 113° |
| 2026-05-06 19:25 | 24.24373 | 42.15539 | 38963 ft | 549 kts | 113° |
| 2026-05-06 19:26 | 24.22250 | 42.23552 | 38960 ft | 549 kts | 113° |
| 2026-05-06 19:26 | 24.20115 | 42.31605 | 38965 ft | 549 kts | 113° |
| 2026-05-06 19:27 | 24.17993 | 42.39588 | 38968 ft | 549 kts | 113° |
| 2026-05-06 19:27 | 24.15860 | 42.47589 | 38965 ft | 548 kts | 113° |
| 2026-05-06 19:28 | 24.13716 | 42.55614 | 38972 ft | 548 kts | 113° |
| 2026-05-06 19:28 | 24.11578 | 42.63596 | 38966 ft | 548 kts | 113° |
| 2026-05-06 19:29 | 24.09436 | 42.71576 | 38982 ft | 547 kts | 113° |
| 2026-05-06 19:29 | 24.07282 | 42.79584 | 38980 ft | 547 kts | 113° |
| 2026-05-06 19:30 | 24.05138 | 42.87535 | 38981 ft | 547 kts | 113° |
| 2026-05-06 19:30 | 24.02981 | 42.95524 | 38985 ft | 547 kts | 113° |
| 2026-05-06 19:31 | 24.00818 | 43.03503 | 38975 ft | 547 kts | 113° |
| 2026-05-06 19:31 | 23.97581 | 43.15415 | 38985 ft | 546 kts | 113° |
| 2026-05-06 19:32 | 23.95410 | 43.23382 | 38975 ft | 546 kts | 113° |
| 2026-05-06 19:32 | 23.93245 | 43.31310 | 38990 ft | 546 kts | 113° |
| 2026-05-06 19:33 | 23.91064 | 43.39283 | 38994 ft | 545 kts | 113° |
| 2026-05-06 19:33 | 23.88897 | 43.47187 | 38985 ft | 545 kts | 113° |
| 2026-05-06 19:34 | 23.86715 | 43.55122 | 38978 ft | 545 kts | 113° |
| 2026-05-06 19:34 | 23.84534 | 43.63040 | 38973 ft | 545 kts | 113° |
| 2026-05-06 19:35 | 23.82354 | 43.70938 | 38979 ft | 544 kts | 112° |
| 2026-05-06 19:35 | 23.80160 | 43.78867 | 38977 ft | 544 kts | 112° |
| 2026-05-06 19:36 | 23.77998 | 43.86795 | 38959 ft | 546 kts | 109° |
| 2026-05-06 19:36 | 23.76906 | 43.95010 | 38969 ft | 552 kts | 100° |
| 2026-05-06 19:37 | 23.76258 | 44.03369 | 38946 ft | 553 kts | 98° |
| 2026-05-06 19:37 | 23.75673 | 44.11729 | 38960 ft | 551 kts | 98° |
| 2026-05-06 19:38 | 23.75069 | 44.20069 | 38968 ft | 550 kts | 99° |
| 2026-05-06 19:38 | 23.74445 | 44.28360 | 38964 ft | 550 kts | 98° |
| 2026-05-06 19:39 | 23.73809 | 44.36685 | 38972 ft | 549 kts | 99° |
| 2026-05-06 19:39 | 23.73175 | 44.44928 | 38961 ft | 548 kts | 98° |
| 2026-05-06 19:40 | 23.72534 | 44.53220 | 38978 ft | 547 kts | 99° |
| 2026-05-06 19:40 | 23.71890 | 44.61497 | 38973 ft | 547 kts | 99° |
| 2026-05-06 19:41 | 23.71241 | 44.69774 | 38968 ft | 545 kts | 99° |
| 2026-05-06 19:41 | 23.70590 | 44.78022 | 38972 ft | 545 kts | 99° |
| 2026-05-06 19:42 | 23.69939 | 44.86218 | 38973 ft | 545 kts | 99° |
| 2026-05-06 19:42 | 23.69280 | 44.94461 | 38967 ft | 545 kts | 99° |
| 2026-05-06 19:43 | 23.68616 | 45.02694 | 38969 ft | 546 kts | 99° |
| 2026-05-06 19:43 | 23.67946 | 45.10943 | 38977 ft | 544 kts | 99° |
| 2026-05-06 19:44 | 23.67279 | 45.19116 | 38965 ft | 543 kts | 99° |
| 2026-05-06 19:44 | 23.66606 | 45.27354 | 38955 ft | 545 kts | 99° |
| 2026-05-06 19:45 | 23.65926 | 45.35552 | 38960 ft | 545 kts | 99° |
| 2026-05-06 19:45 | 23.65238 | 45.43793 | 38951 ft | 546 kts | 99° |
| 2026-05-06 19:46 | 23.64545 | 45.52054 | 38949 ft | 546 kts | 99° |
| 2026-05-06 19:46 | 23.63849 | 45.60316 | 38939 ft | 545 kts | 99° |
| 2026-05-06 19:47 | 23.63162 | 45.68492 | 38934 ft | 544 kts | 99° |
| 2026-05-06 19:47 | 23.62457 | 45.76717 | 38928 ft | 543 kts | 99° |
| 2026-05-06 19:48 | 23.61751 | 45.84893 | 38925 ft | 542 kts | 99° |
| 2026-05-06 19:48 | 23.61040 | 45.93092 | 38921 ft | 542 kts | 99° |
| 2026-05-06 19:49 | 23.60332 | 46.01222 | 38923 ft | 541 kts | 99° |
| 2026-05-06 19:49 | 23.59615 | 46.09404 | 38934 ft | 540 kts | 99° |
| 2026-05-06 19:50 | 23.58896 | 46.17559 | 38935 ft | 540 kts | 99° |
| 2026-05-06 19:50 | 23.58177 | 46.25671 | 38944 ft | 540 kts | 100° |
| 2026-05-06 19:51 | 23.57448 | 46.33829 | 38951 ft | 540 kts | 100° |
| 2026-05-06 19:51 | 23.56718 | 46.41963 | 38958 ft | 540 kts | 100° |
| 2026-05-06 19:52 | 23.55985 | 46.50082 | 38962 ft | 540 kts | 100° |
| 2026-05-06 19:52 | 23.55251 | 46.58225 | 38953 ft | 540 kts | 100° |
| 2026-05-06 19:53 | 23.54505 | 46.66375 | 38948 ft | 538 kts | 99° |
| 2026-05-06 19:53 | 23.53762 | 46.74452 | 38950 ft | 537 kts | 99° |
| 2026-05-06 19:54 | 23.53009 | 46.82585 | 38936 ft | 538 kts | 100° |
| 2026-05-06 19:54 | 23.52259 | 46.90653 | 38938 ft | 537 kts | 100° |
| 2026-05-06 19:55 | 23.51501 | 46.98754 | 38928 ft | 537 kts | 100° |
| 2026-05-06 19:55 | 23.50741 | 47.06846 | 38921 ft | 537 kts | 100° |
| 2026-05-06 19:56 | 23.49976 | 47.14945 | 38908 ft | 537 kts | 99° |
| 2026-05-06 19:56 | 23.49206 | 47.23037 | 38915 ft | 536 kts | 99° |
| 2026-05-06 19:57 | 23.48436 | 47.31107 | 38902 ft | 535 kts | 99° |
| 2026-05-06 19:57 | 23.47661 | 47.39168 | 38895 ft | 535 kts | 99° |
| 2026-05-06 19:58 | 23.46888 | 47.47170 | 38892 ft | 534 kts | 99° |
| 2026-05-06 19:58 | 23.46108 | 47.55209 | 38889 ft | 533 kts | 99° |
| 2026-05-06 19:59 | 23.45322 | 47.63251 | 38882 ft | 533 kts | 99° |
| 2026-05-06 19:59 | 23.44535 | 47.71279 | 38873 ft | 531 kts | 99° |
| 2026-05-06 20:00 | 23.43748 | 47.79247 | 38873 ft | 530 kts | 99° |
| 2026-05-06 20:00 | 23.42960 | 47.87193 | 38870 ft | 529 kts | 99° |
| 2026-05-06 20:01 | 23.42167 | 47.95149 | 38860 ft | 529 kts | 99° |
| 2026-05-06 20:01 | 23.41373 | 48.03075 | 38879 ft | 529 kts | 99° |
| 2026-05-06 20:02 | 23.40565 | 48.11081 | 38848 ft | 532 kts | 99° |
| 2026-05-06 20:02 | 23.39758 | 48.19056 | 38834 ft | 533 kts | 99° |
| 2026-05-06 20:03 | 23.38939 | 48.27104 | 38833 ft | 534 kts | 99° |
| 2026-05-06 20:03 | 23.38119 | 48.35137 | 38824 ft | 536 kts | 99° |
| 2026-05-06 20:04 | 23.37656 | 48.43280 | 38826 ft | 538 kts | 94° |
| 2026-05-06 20:04 | 23.37447 | 48.51416 | 38827 ft | 540 kts | 94° |
| 2026-05-06 20:05 | 23.37189 | 48.59559 | 38831 ft | 541 kts | 95° |
| 2026-05-06 20:05 | 23.36867 | 48.67759 | 38819 ft | 540 kts | 95° |
| 2026-05-06 20:06 | 23.36523 | 48.75889 | 38827 ft | 538 kts | 95° |
| 2026-05-06 20:06 | 23.36175 | 48.83993 | 38827 ft | 537 kts | 95° |
| 2026-05-06 20:07 | 23.35824 | 48.92125 | 38813 ft | 537 kts | 95° |
| 2026-05-06 20:07 | 23.35472 | 49.00234 | 38818 ft | 535 kts | 95° |
| 2026-05-06 20:08 | 23.35118 | 49.08296 | 38817 ft | 534 kts | 95° |
| 2026-05-06 20:08 | 23.34760 | 49.16343 | 38815 ft | 534 kts | 95° |
| 2026-05-06 20:09 | 23.34396 | 49.24431 | 38814 ft | 533 kts | 95° |
| 2026-05-06 20:09 | 23.34031 | 49.32453 | 38815 ft | 534 kts | 95° |
| 2026-05-06 20:10 | 23.33659 | 49.40541 | 38812 ft | 534 kts | 95° |
| 2026-05-06 20:10 | 23.33284 | 49.48595 | 38807 ft | 534 kts | 95° |
| 2026-05-06 20:11 | 23.32907 | 49.56623 | 38799 ft | 534 kts | 95° |
| 2026-05-06 20:11 | 23.32523 | 49.64717 | 38810 ft | 532 kts | 95° |
| 2026-05-06 20:12 | 23.32139 | 49.72708 | 38807 ft | 531 kts | 95° |
| 2026-05-06 20:12 | 23.31750 | 49.80715 | 38807 ft | 531 kts | 96° |
| 2026-05-06 20:13 | 23.31358 | 49.88707 | 38810 ft | 531 kts | 96° |
| 2026-05-06 20:13 | 23.30958 | 49.96764 | 38810 ft | 531 kts | 96° |
| 2026-05-06 20:14 | 23.30557 | 50.04775 | 38807 ft | 531 kts | 96° |
| 2026-05-06 20:14 | 23.30229 | 50.11276 | 38807 ft | 531 kts | 96° |
| 2026-05-06 20:15 | 23.29811 | 50.19453 | 38811 ft | 531 kts | 96° |
| 2026-05-06 20:15 | 23.29397 | 50.27498 | 38798 ft | 531 kts | 96° |
| 2026-05-06 20:16 | 23.28983 | 50.35453 | 38804 ft | 529 kts | 96° |
| 2026-05-06 20:16 | 23.28633 | 50.42125 | 38813 ft | 529 kts | 96° |
| 2026-05-06 20:17 | 23.28208 | 50.50137 | 38806 ft | 529 kts | 96° |
| 2026-05-06 20:17 | 23.27782 | 50.58095 | 38805 ft | 529 kts | 96° |
| 2026-05-06 20:18 | 23.27349 | 50.66109 | 38805 ft | 529 kts | 96° |
| 2026-05-06 20:18 | 23.26915 | 50.74081 | 38804 ft | 529 kts | 96° |
| 2026-05-06 20:19 | 23.26478 | 50.82022 | 38805 ft | 529 kts | 96° |
| 2026-05-06 20:19 | 23.26882 | 50.90034 | 38804 ft | 533 kts | 79° |
| 2026-05-06 20:20 | 23.27944 | 50.93907 | 38802 ft | 535 kts | 68° |
| 2026-05-06 20:20 | 23.29604 | 50.97477 | 38801 ft | 535 kts | 57° |
| 2026-05-06 20:20 | 23.31856 | 51.00693 | 38802 ft | 533 kts | 45° |
| 2026-05-06 20:20 | 23.34597 | 51.03392 | 38805 ft | 531 kts | 34° |
| 2026-05-06 20:21 | 23.37752 | 51.05446 | 38809 ft | 525 kts | 20° |
| 2026-05-06 20:21 | 23.41138 | 51.06822 | 38809 ft | 522 kts | 14° |
| 2026-05-06 20:21 | 23.48077 | 51.09258 | 38806 ft | 523 kts | 14° |
| 2026-05-06 20:22 | 23.54989 | 51.11686 | 38809 ft | 524 kts | 14° |
| 2026-05-06 20:22 | 23.61942 | 51.14140 | 38603 ft | 522 kts | 14° |
| 2026-05-06 20:23 | 23.65366 | 51.15351 | 38358 ft | 524 kts | 14° |
| 2026-05-06 20:23 | 23.68854 | 51.16584 | 38081 ft | 525 kts | 14° |
| 2026-05-06 20:23 | 23.72302 | 51.17805 | 37827 ft | 526 kts | 14° |
| 2026-05-06 20:23 | 23.75799 | 51.19044 | 37569 ft | 526 kts | 14° |
| 2026-05-06 20:24 | 23.79281 | 51.20279 | 37071 ft | 523 kts | 14° |
| 2026-05-06 20:24 | 23.82709 | 51.21495 | 36390 ft | 522 kts | 14° |
| 2026-05-06 20:24 | 23.86183 | 51.22728 | 35670 ft | 523 kts | 14° |
| 2026-05-06 20:24 | 23.89655 | 51.23961 | 34922 ft | 524 kts | 14° |
| 2026-05-06 20:25 | 23.93135 | 51.25196 | 34099 ft | 527 kts | 15° |
| 2026-05-06 20:25 | 23.96641 | 51.26442 | 33152 ft | 530 kts | 15° |
| 2026-05-06 20:25 | 24.00133 | 51.27685 | 32242 ft | 532 kts | 15° |
| 2026-05-06 20:25 | 24.03628 | 51.28929 | 31322 ft | 534 kts | 15° |
| 2026-05-06 20:26 | 24.07180 | 51.30194 | 30367 ft | 535 kts | 15° |
| 2026-05-06 20:26 | 24.10747 | 51.31464 | 29304 ft | 538 kts | 15° |
| 2026-05-06 20:26 | 24.14278 | 51.32724 | 28403 ft | 536 kts | 15° |
| 2026-05-06 20:26 | 24.17799 | 51.33982 | 27649 ft | 521 kts | 16° |
| 2026-05-06 20:27 | 24.21188 | 51.35196 | 26977 ft | 502 kts | 16° |
| 2026-05-06 20:27 | 24.24421 | 51.36352 | 26322 ft | 484 kts | 16° |
| 2026-05-06 20:27 | 24.27580 | 51.37482 | 25671 ft | 469 kts | 16° |
| 2026-05-06 20:27 | 24.30675 | 51.38588 | 25029 ft | 466 kts | 16° |
| 2026-05-06 20:28 | 24.33727 | 51.39677 | 24406 ft | 464 kts | 17° |
| 2026-05-06 20:28 | 24.36762 | 51.40763 | 23790 ft | 451 kts | 17° |
| 2026-05-06 20:28 | 24.39754 | 51.41834 | 23129 ft | 454 kts | 17° |
| 2026-05-06 20:28 | 24.42715 | 51.42894 | 22468 ft | 451 kts | 17° |
| 2026-05-06 20:29 | 24.45686 | 51.43959 | 21850 ft | 447 kts | 17° |
| 2026-05-06 20:29 | 24.48637 | 51.45017 | 21233 ft | 443 kts | 17° |
| 2026-05-06 20:29 | 24.51561 | 51.46067 | 20831 ft | 439 kts | 17° |
| 2026-05-06 20:29 | 24.54417 | 51.47092 | 20351 ft | 434 kts | 17° |
| 2026-05-06 20:30 | 24.57290 | 51.48124 | 19746 ft | 431 kts | 17° |
| 2026-05-06 20:30 | 24.62970 | 51.50165 | 18441 ft | 428 kts | 17° |
| 2026-05-06 20:30 | 24.65771 | 51.51172 | 17740 ft | 425 kts | 18° |
| 2026-05-06 20:31 | 24.68561 | 51.52227 | 16978 ft | 422 kts | 21° |
| 2026-05-06 20:31 | 24.71250 | 51.53477 | 16283 ft | 417 kts | 24° |
| 2026-05-06 20:31 | 24.73861 | 51.54753 | 15622 ft | 411 kts | 24° |
| 2026-05-06 20:31 | 24.76471 | 51.56034 | 14965 ft | 406 kts | 25° |
| 2026-05-06 20:32 | 24.79048 | 51.57298 | 14317 ft | 401 kts | 25° |
| 2026-05-06 20:32 | 24.81548 | 51.58525 | 13800 ft | 393 kts | 25° |
| 2026-05-06 20:32 | 24.83914 | 51.60008 | 13141 ft | 387 kts | 38° |
| 2026-05-06 20:32 | 24.85736 | 51.62145 | 12763 ft | 381 kts | 56° |
| 2026-05-06 20:33 | 24.87123 | 51.64671 | 12684 ft | 387 kts | 60° |
| 2026-05-06 20:33 | 24.88432 | 51.67242 | 12619 ft | 387 kts | 60° |
| 2026-05-06 20:33 | 24.89725 | 51.69795 | 12527 ft | 387 kts | 60° |
| 2026-05-06 20:33 | 24.91040 | 51.72389 | 12387 ft | 387 kts | 60° |
| 2026-05-06 20:34 | 24.92350 | 51.74971 | 12212 ft | 385 kts | 60° |
| 2026-05-06 20:34 | 24.93652 | 51.77535 | 11546 ft | 381 kts | 60° |
| 2026-05-06 20:34 | 24.94937 | 51.80065 | 10844 ft | 378 kts | 60° |
| 2026-05-06 20:34 | 24.96217 | 51.82586 | 10112 ft | 375 kts | 60° |
| 2026-05-06 20:35 | 24.97488 | 51.85092 | 9555 ft | 368 kts | 59° |
| 2026-05-06 20:35 | 24.98704 | 51.87491 | 9476 ft | 346 kts | 59° |
| 2026-05-06 20:35 | 24.99827 | 51.89708 | 9492 ft | 323 kts | 59° |
| 2026-05-06 20:35 | 25.00886 | 51.91799 | 9507 ft | 301 kts | 59° |
| 2026-05-06 20:36 | 25.01878 | 51.93758 | 9536 ft | 285 kts | 59° |
| 2026-05-06 20:36 | 25.02876 | 51.95640 | 9540 ft | 285 kts | 55° |
| 2026-05-06 20:36 | 25.04161 | 51.97255 | 9429 ft | 283 kts | 39° |
| 2026-05-06 20:36 | 25.05843 | 51.98348 | 9232 ft | 281 kts | 20° |
| 2026-05-06 20:37 | 25.07764 | 51.98786 | 9042 ft | 285 kts | 2° |
| 2026-05-06 20:37 | 25.09743 | 51.98514 | 8857 ft | 288 kts | 344° |
| 2026-05-06 20:37 | 25.11537 | 51.97546 | 8655 ft | 289 kts | 326° |
| 2026-05-06 20:37 | 25.13196 | 51.96340 | 8457 ft | 288 kts | 334° |
| 2026-05-06 20:38 | 25.15065 | 51.95542 | 8268 ft | 285 kts | 341° |
| 2026-05-06 20:38 | 25.16919 | 51.94768 | 8074 ft | 285 kts | 340° |
| 2026-05-06 20:38 | 25.18749 | 51.93976 | 7889 ft | 285 kts | 340° |
| 2026-05-06 20:38 | 25.20555 | 51.93060 | 7694 ft | 286 kts | 330° |
| 2026-05-06 20:39 | 25.22124 | 51.91704 | 7520 ft | 287 kts | 317° |
| 2026-05-06 20:39 | 25.23379 | 51.90048 | 7318 ft | 279 kts | 303° |
| 2026-05-06 20:39 | 25.24092 | 51.88101 | 7147 ft | 270 kts | 281° |
| 2026-05-06 20:39 | 25.23991 | 51.86077 | 6982 ft | 262 kts | 253° |
| 2026-05-06 20:40 | 25.23250 | 51.84278 | 6872 ft | 252 kts | 242° |
| 2026-05-06 20:40 | 25.22421 | 51.82649 | 6679 ft | 240 kts | 241° |
| 2026-05-06 20:40 | 25.21597 | 51.81064 | 6252 ft | 236 kts | 241° |
| 2026-05-06 20:40 | 25.20780 | 51.79491 | 5722 ft | 234 kts | 241° |
| 2026-05-06 20:41 | 25.20003 | 51.77993 | 5431 ft | 220 kts | 240° |
| 2026-05-06 20:41 | 25.19257 | 51.76553 | 5054 ft | 213 kts | 240° |
| 2026-05-06 20:41 | 25.18522 | 51.75134 | 4596 ft | 210 kts | 240° |
| 2026-05-06 20:41 | 25.17814 | 51.73765 | 4032 ft | 205 kts | 240° |
| 2026-05-06 20:42 | 25.17104 | 51.72397 | 3410 ft | 205 kts | 240° |
| 2026-05-06 20:42 | 25.16397 | 51.71033 | 2841 ft | 202 kts | 241° |
| 2026-05-06 20:42 | 25.15706 | 51.69704 | 2557 ft | 194 kts | 242° |
| 2026-05-06 20:42 | 25.15077 | 51.68498 | 2407 ft | 173 kts | 242° |
| 2026-05-06 20:43 | 25.14519 | 51.67387 | 2288 ft | 156 kts | 249° |
| 2026-05-06 20:43 | 25.14353 | 51.66295 | 2143 ft | 138 kts | 286° |
| 2026-05-06 20:43 | 25.14890 | 51.65493 | 2117 ft | 128 kts | 317° |
| 2026-05-06 20:43 | 25.15607 | 51.64934 | 2043 ft | 130 kts | 334° |
| 2026-05-06 20:44 | 25.16446 | 51.64562 | 1886 ft | 129 kts | 340° |
| 2026-05-06 20:44 | 25.17276 | 51.64198 | 1706 ft | 127 kts | 337° |
| 2026-05-06 20:44 | 25.18091 | 51.63832 | 1550 ft | 126 kts | 340° |
| 2026-05-06 20:44 | 25.18900 | 51.63474 | 1377 ft | 125 kts | 340° |
| 2026-05-06 20:45 | 25.19707 | 51.63120 | 1246 ft | 125 kts | 341° |
| 2026-05-06 20:45 | 25.20523 | 51.62765 | 1085 ft | 127 kts | 338° |
| 2026-05-06 20:45 | 25.21343 | 51.62405 | 912 ft | 127 kts | 338° |
| 2026-05-06 20:45 | 25.22154 | 51.62049 | 747 ft | 124 kts | 338° |
| 2026-05-06 20:46 | 25.22953 | 51.61690 | 621 ft | 124 kts | 337° |
| 2026-05-06 20:46 | 25.23745 | 51.61327 | 462 ft | 125 kts | 338° |
| 2026-05-06 20:46 | 25.24558 | 51.60967 | 295 ft | 125 kts | 340° |
| 2026-05-06 20:46 | 25.25361 | 51.60614 | 105 ft | 124 kts | 339° |
| 2026-05-06 20:47 | 25.26146 | 51.60270 | 35 ft | 112 kts | 339° |
| 2026-05-06 20:47 | 25.26785 | 51.59992 | 32 ft | 86 kts | 338° |
| 2026-05-06 20:47 | 25.27258 | 51.59788 | 32 ft | 61 kts | 337° |
| 2026-05-06 20:47 | 25.27565 | 51.59646 | 31 ft | 35 kts | 337° |